createdAt,value
2023-01-22T00:12:57.240Z,101326.27
2023-01-22T00:27:47.267Z,101314.46
2023-01-22T00:42:37.844Z,101310.58
2023-01-22T00:57:28.294Z,101296.78
2023-01-22T01:12:18.258Z,101286.73
2023-01-22T01:27:08.338Z,101279.91
2023-01-22T01:41:59.373Z,101281.28
2023-01-22T01:56:51.389Z,101279.69
2023-01-22T02:11:45.214Z,101273.25
2023-01-22T02:26:35.167Z,101270.73
2023-01-22T02:41:25.297Z,101254.62
2023-01-22T02:56:14.450Z,101250.28
2023-01-22T03:26:09.107Z,101240.44
2023-01-22T03:41:04.713Z,101240.45
2023-01-22T03:56:00.755Z,101235.25
2023-01-22T04:10:55.078Z,101240.52
2023-01-22T04:25:44.162Z,101247.02
2023-01-22T04:40:33.577Z,101251.80
2023-01-22T04:55:24.495Z,101253.70
2023-01-22T05:10:14.408Z,101257.67
2023-01-22T05:25:04.719Z,101259.03
2023-01-22T05:39:54.872Z,101261.69
2023-01-22T06:09:34.817Z,101286.92
2023-01-22T06:24:24.473Z,101298.22
2023-01-22T06:39:14.516Z,101302.54
2023-01-22T06:54:08.516Z,101308.66
2023-01-22T07:08:58.955Z,101311.80
2023-01-22T07:53:41.499Z,101356.74
2023-01-22T08:08:32.255Z,101366.32
2023-01-22T08:23:23.066Z,101388.17
2023-01-22T08:38:12.713Z,101401.67
2023-01-22T08:53:02.534Z,101409.16
2023-01-22T09:07:53.946Z,101410.44
2023-01-22T09:22:51.806Z,101432.81
2023-01-22T09:37:43.392Z,101441.17
2023-01-22T09:52:34.572Z,101444.73
2023-01-22T10:07:31.220Z,101457.11
2023-01-22T10:22:26.604Z,101454.58
2023-01-22T10:37:19.398Z,101452.09
2023-01-22T10:52:18.719Z,101461.78
2023-01-22T11:07:23.125Z,101457.55
2023-01-22T11:22:18.465Z,101455.49
2023-01-22T11:37:16.224Z,101453.77
2023-01-22T11:52:33.406Z,101447.45
2023-01-22T12:07:59.364Z,101438.16
2023-01-22T12:23:10.285Z,101442.45
2023-01-22T12:38:24.875Z,101438.02
2023-01-22T12:53:26.465Z,101439.62
2023-01-22T13:08:21.138Z,101438.34
2023-01-22T13:23:12.034Z,101450.09
2023-01-22T13:38:02.401Z,101463.26
2023-01-22T13:52:53.757Z,101468.07
2023-01-22T14:07:45.099Z,101471.48
2023-01-22T14:22:34.142Z,101478.86
2023-01-22T14:37:24.083Z,101488.47
2023-01-22T14:52:14.892Z,101488.00
2023-01-22T15:07:04.567Z,101495.02
2023-01-22T15:21:54.776Z,101514.28
2023-01-22T15:36:45.323Z,101526.47
2023-01-22T15:51:35.342Z,101539.55
2023-01-22T16:06:25.888Z,101542.59
2023-01-22T16:21:16.414Z,101556.14
2023-01-22T16:36:06.509Z,101559.59
2023-01-22T16:50:57.333Z,101571.30
2023-01-22T17:05:47.600Z,101579.63
2023-01-22T17:20:36.851Z,101587.83
2023-01-22T17:35:26.584Z,101605.80
2023-01-22T17:50:17.014Z,101611.41
2023-01-22T18:05:09.430Z,101625.79
2023-01-22T18:19:58.247Z,101634.84
2023-01-22T18:34:48.653Z,101646.68
2023-01-22T18:49:39.180Z,101649.67
2023-01-22T19:04:29.085Z,101653.06
2023-01-22T19:19:19.731Z,101652.94
2023-01-22T19:34:11.127Z,101672.91
2023-01-22T19:49:01.367Z,101683.91
2023-01-22T20:18:41.810Z,101710.93
2023-01-22T20:33:32.312Z,101715.28
2023-01-22T20:48:22.456Z,101716.14
2023-01-22T21:03:13.577Z,101726.14
2023-01-22T21:18:03.290Z,101719.67
2023-01-22T21:32:52.917Z,101727.06
2023-01-22T21:47:43.052Z,101733.66
2023-01-22T22:02:33.500Z,101727.05
2023-01-22T22:17:22.960Z,101739.97
2023-01-22T22:32:13.172Z,101735.56
2023-01-22T22:47:04.349Z,101742.06
2023-01-22T23:02:01.058Z,101749.02
2023-01-22T23:16:51.613Z,101750.66
2023-01-22T23:31:41.350Z,101753.09
2023-01-22T23:46:33.176Z,101752.01
